sensor_id;sensor_type;location;lat;lon;timestamp;P1;durP1;ratioP1;P2;durP2;ratioP2
3865;SDS011;1948;53.250;10.412;2023-12-20T00:02:00;13.43;;;2.70;;
3865;SDS011;1948;53.250;10.412;2023-12-20T00:04:28;9.10;;;2.77;;
3865;SDS011;1948;53.250;10.412;2023-12-20T00:06:56;15.93;;;3.33;;
3865;SDS011;1948;53.250;10.412;2023-12-20T00:09:23;11.93;;;2.90;;
3865;SDS011;1948;53.250;10.412;2023-12-20T00:11:52;21.50;;;2.93;;
3865;SDS011;1948;53.250;10.412;2023-12-20T00:14:23;30.97;;;3.43;;
3865;SDS011;1948;53.250;10.412;2023-12-20T00:16:51;10.40;;;2.90;;
3865;SDS011;1948;53.250;10.412;2023-12-20T00:19:18;15.83;;;3.30;;
3865;SDS011;1948;53.250;10.412;2023-12-20T00:21:45;18.50;;;2.00;;
3865;SDS011;1948;53.250;10.412;2023-12-20T00:24:14;17.23;;;2.40;;
3865;SDS011;1948;53.250;10.412;2023-12-20T00:26:49;12.47;;;2.43;;
3865;SDS011;1948;53.250;10.412;2023-12-20T00:29:18;12.23;;;2.40;;
3865;SDS011;1948;53.250;10.412;2023-12-20T00:31:46;16.63;;;3.03;;
3865;SDS011;1948;53.250;10.412;2023-12-20T00:34:13;5.23;;;2.27;;
3865;SDS011;1948;53.250;10.412;2023-12-20T00:36:42;10.20;;;1.93;;
3865;SDS011;1948;53.250;10.412;2023-12-20T00:39:11;16.87;;;2.70;;
3865;SDS011;1948;53.250;10.412;2023-12-20T00:41:42;17.20;;;2.70;;
3865;SDS011;1948;53.250;10.412;2023-12-20T00:44:09;16.60;;;2.43;;
3865;SDS011;1948;53.250;10.412;2023-12-20T00:46:39;17.27;;;2.80;;
3865;SDS011;1948;53.250;10.412;2023-12-20T00:49:09;8.03;;;2.20;;
3865;SDS011;1948;53.250;10.412;2023-12-20T00:51:38;14.60;;;2.37;;
3865;SDS011;1948;53.250;10.412;2023-12-20T00:54:10;37.07;;;2.70;;
3865;SDS011;1948;53.250;10.412;2023-12-20T00:56:42;12.83;;;2.40;;
3865;SDS011;1948;53.250;10.412;2023-12-20T00:59:09;27.97;;;1.93;;
3865;SDS011;1948;53.250;10.412;2023-12-20T01:01:36;11.10;;;2.20;;
3865;SDS011;1948;53.250;10.412;2023-12-20T01:04:07;31.37;;;2.50;;
3865;SDS011;1948;53.250;10.412;2023-12-20T01:06:37;11.23;;;2.30;;
3865;SDS011;1948;53.250;10.412;2023-12-20T01:09:04;22.47;;;2.27;;
3865;SDS011;1948;53.250;10.412;2023-12-20T01:11:31;22.40;;;2.70;;
3865;SDS011;1948;53.250;10.412;2023-12-20T01:14:02;16.03;;;2.33;;
3865;SDS011;1948;53.250;10.412;2023-12-20T01:16:30;7.53;;;1.97;;
3865;SDS011;1948;53.250;10.412;2023-12-20T01:18:57;15.23;;;3.20;;
3865;SDS011;1948;53.250;10.412;2023-12-20T01:21:24;4.50;;;2.17;;
3865;SDS011;1948;53.250;10.412;2023-12-20T01:23:51;8.27;;;2.23;;
3865;SDS011;1948;53.250;10.412;2023-12-20T01:26:18;15.90;;;2.67;;
3865;SDS011;1948;53.250;10.412;2023-12-20T01:28:48;21.93;;;2.87;;
3865;SDS011;1948;53.250;10.412;2023-12-20T01:31:15;11.57;;;2.03;;
3865;SDS011;1948;53.250;10.412;2023-12-20T01:33:44;11.63;;;2.13;;
3865;SDS011;1948;53.250;10.412;2023-12-20T01:36:12;15.23;;;2.63;;
3865;SDS011;1948;53.250;10.412;2023-12-20T01:38:39;28.00;;;2.97;;
3865;SDS011;1948;53.250;10.412;2023-12-20T01:41:11;7.10;;;2.40;;
3865;SDS011;1948;53.250;10.412;2023-12-20T01:43:39;25.57;;;3.20;;
3865;SDS011;1948;53.250;10.412;2023-12-20T01:46:17;18.27;;;2.77;;
3865;SDS011;1948;53.250;10.412;2023-12-20T01:48:57;9.07;;;2.00;;
3865;SDS011;1948;53.250;10.412;2023-12-20T01:51:26;17.20;;;2.53;;
3865;SDS011;1948;53.250;10.412;2023-12-20T01:53:57;27.87;;;3.03;;
3865;SDS011;1948;53.250;10.412;2023-12-20T01:56:29;19.57;;;2.30;;
3865;SDS011;1948;53.250;10.412;2023-12-20T01:59:01;32.03;;;2.77;;
3865;SDS011;1948;53.250;10.412;2023-12-20T02:01:31;19.10;;;2.50;;
3865;SDS011;1948;53.250;10.412;2023-12-20T02:04:01;5.50;;;2.63;;
3865;SDS011;1948;53.250;10.412;2023-12-20T02:06:31;13.43;;;2.63;;
3865;SDS011;1948;53.250;10.412;2023-12-20T02:09:02;14.83;;;2.30;;
3865;SDS011;1948;53.250;10.412;2023-12-20T02:11:35;11.10;;;2.57;;
3865;SDS011;1948;53.250;10.412;2023-12-20T02:14:06;13.83;;;3.47;;
3865;SDS011;1948;53.250;10.412;2023-12-20T02:16:34;16.07;;;2.53;;
3865;SDS011;1948;53.250;10.412;2023-12-20T02:19:04;12.73;;;2.43;;
3865;SDS011;1948;53.250;10.412;2023-12-20T02:21:44;15.27;;;3.30;;
3865;SDS011;1948;53.250;10.412;2023-12-20T02:24:16;24.53;;;3.10;;
3865;SDS011;1948;53.250;10.412;2023-12-20T02:26:47;12.40;;;3.03;;
3865;SDS011;1948;53.250;10.412;2023-12-20T02:29:15;6.73;;;2.60;;
3865;SDS011;1948;53.250;10.412;2023-12-20T02:31:49;24.37;;;2.97;;
3865;SDS011;1948;53.250;10.412;2023-12-20T02:34:20;15.53;;;2.93;;
3865;SDS011;1948;53.250;10.412;2023-12-20T02:36:50;18.57;;;4.10;;
3865;SDS011;1948;53.250;10.412;2023-12-20T02:39:18;13.73;;;3.17;;
3865;SDS011;1948;53.250;10.412;2023-12-20T02:41:52;9.87;;;2.87;;
3865;SDS011;1948;53.250;10.412;2023-12-20T02:44:21;23.87;;;4.37;;
3865;SDS011;1948;53.250;10.412;2023-12-20T02:46:49;14.20;;;3.50;;
3865;SDS011;1948;53.250;10.412;2023-12-20T02:49:19;18.07;;;4.30;;
3865;SDS011;1948;53.250;10.412;2023-12-20T02:51:48;7.97;;;3.93;;
3865;SDS011;1948;53.250;10.412;2023-12-20T02:54:17;21.70;;;4.70;;
3865;SDS011;1948;53.250;10.412;2023-12-20T02:56:50;18.33;;;4.37;;
3865;SDS011;1948;53.250;10.412;2023-12-20T02:59:18;20.87;;;4.37;;
3865;SDS011;1948;53.250;10.412;2023-12-20T03:01:48;73.17;;;6.90;;
3865;SDS011;1948;53.250;10.412;2023-12-20T03:04:19;13.67;;;4.50;;
3865;SDS011;1948;53.250;10.412;2023-12-20T03:06:49;14.53;;;4.87;;
3865;SDS011;1948;53.250;10.412;2023-12-20T03:09:16;26.03;;;4.80;;
3865;SDS011;1948;53.250;10.412;2023-12-20T03:11:49;16.47;;;4.63;;
3865;SDS011;1948;53.250;10.412;2023-12-20T03:14:22;23.43;;;5.57;;
3865;SDS011;1948;53.250;10.412;2023-12-20T03:16:56;17.87;;;3.93;;
3865;SDS011;1948;53.250;10.412;2023-12-20T03:19:28;19.93;;;4.07;;
3865;SDS011;1948;53.250;10.412;2023-12-20T03:21:59;15.30;;;4.07;;
3865;SDS011;1948;53.250;10.412;2023-12-20T03:24:32;14.33;;;4.60;;
3865;SDS011;1948;53.250;10.412;2023-12-20T03:27:03;15.97;;;4.13;;
3865;SDS011;1948;53.250;10.412;2023-12-20T03:29:34;9.23;;;3.90;;
3865;SDS011;1948;53.250;10.412;2023-12-20T03:32:02;18.43;;;4.03;;
3865;SDS011;1948;53.250;10.412;2023-12-20T03:34:34;18.83;;;4.70;;
3865;SDS011;1948;53.250;10.412;2023-12-20T03:37:05;12.43;;;3.93;;
3865;SDS011;1948;53.250;10.412;2023-12-20T03:39:34;16.23;;;4.07;;
3865;SDS011;1948;53.250;10.412;2023-12-20T03:42:02;17.97;;;3.77;;
3865;SDS011;1948;53.250;10.412;2023-12-20T03:44:39;19.73;;;4.37;;
3865;SDS011;1948;53.250;10.412;2023-12-20T03:47:07;9.10;;;3.10;;
3865;SDS011;1948;53.250;10.412;2023-12-20T03:49:38;17.57;;;3.00;;
3865;SDS011;1948;53.250;10.412;2023-12-20T03:52:07;11.93;;;3.10;;
3865;SDS011;1948;53.250;10.412;2023-12-20T03:54:39;15.13;;;3.20;;
3865;SDS011;1948;53.250;10.412;2023-12-20T03:57:10;14.23;;;3.40;;
3865;SDS011;1948;53.250;10.412;2023-12-20T03:59:38;12.50;;;2.70;;
3865;SDS011;1948;53.250;10.412;2023-12-20T04:02:19;9.93;;;3.00;;
3865;SDS011;1948;53.250;10.412;2023-12-20T04:04:51;11.27;;;2.90;;
3865;SDS011;1948;53.250;10.412;2023-12-20T04:07:21;16.00;;;3.27;;
3865;SDS011;1948;53.250;10.412;2023-12-20T04:09:50;22.60;;;3.20;;
3865;SDS011;1948;53.250;10.412;2023-12-20T04:12:19;17.70;;;3.07;;
3865;SDS011;1948;53.250;10.412;2023-12-20T04:14:47;8.67;;;2.90;;
3865;SDS011;1948;53.250;10.412;2023-12-20T04:17:22;14.13;;;3.77;;
3865;SDS011;1948;53.250;10.412;2023-12-20T04:19:53;14.47;;;3.00;;
3865;SDS011;1948;53.250;10.412;2023-12-20T04:22:23;17.03;;;2.67;;
3865;SDS011;1948;53.250;10.412;2023-12-20T04:24:51;12.27;;;3.77;;
3865;SDS011;1948;53.250;10.412;2023-12-20T04:27:19;22.63;;;3.40;;
3865;SDS011;1948;53.250;10.412;2023-12-20T04:29:46;18.73;;;3.37;;
3865;SDS011;1948;53.250;10.412;2023-12-20T04:32:20;9.83;;;3.00;;
3865;SDS011;1948;53.250;10.412;2023-12-20T04:34:49;20.00;;;3.30;;
3865;SDS011;1948;53.250;10.412;2023-12-20T04:37:19;11.97;;;3.40;;
3865;SDS011;1948;53.250;10.412;2023-12-20T04:39:50;12.97;;;2.57;;
3865;SDS011;1948;53.250;10.412;2023-12-20T04:42:21;16.20;;;3.00;;
3865;SDS011;1948;53.250;10.412;2023-12-20T04:44:56;7.83;;;2.50;;
3865;SDS011;1948;53.250;10.412;2023-12-20T04:47:25;9.10;;;2.80;;
3865;SDS011;1948;53.250;10.412;2023-12-20T04:49:55;21.10;;;3.40;;
3865;SDS011;1948;53.250;10.412;2023-12-20T04:52:23;20.73;;;3.50;;
3865;SDS011;1948;53.250;10.412;2023-12-20T04:54:52;9.77;;;3.40;;
3865;SDS011;1948;53.250;10.412;2023-12-20T04:57:19;16.17;;;3.40;;
3865;SDS011;1948;53.250;10.412;2023-12-20T04:59:46;14.03;;;3.40;;
3865;SDS011;1948;53.250;10.412;2023-12-20T05:02:13;22.50;;;4.47;;
3865;SDS011;1948;53.250;10.412;2023-12-20T05:04:40;10.33;;;3.50;;
3865;SDS011;1948;53.250;10.412;2023-12-20T05:07:08;17.27;;;3.90;;
3865;SDS011;1948;53.250;10.412;2023-12-20T05:09:35;11.10;;;3.30;;
3865;SDS011;1948;53.250;10.412;2023-12-20T05:12:05;14.50;;;3.20;;
3865;SDS011;1948;53.250;10.412;2023-12-20T05:14:33;16.80;;;3.30;;
3865;SDS011;1948;53.250;10.412;2023-12-20T05:17:00;20.50;;;3.40;;
3865;SDS011;1948;53.250;10.412;2023-12-20T05:19:27;25.73;;;3.43;;
3865;SDS011;1948;53.250;10.412;2023-12-20T05:21:55;26.23;;;3.93;;
3865;SDS011;1948;53.250;10.412;2023-12-20T05:24:22;25.70;;;3.50;;
3865;SDS011;1948;53.250;10.412;2023-12-20T05:26:51;21.83;;;3.97;;
3865;SDS011;1948;53.250;10.412;2023-12-20T05:29:21;15.67;;;3.30;;
3865;SDS011;1948;53.250;10.412;2023-12-20T05:31:48;17.33;;;3.63;;
3865;SDS011;1948;53.250;10.412;2023-12-20T05:34:16;19.43;;;3.50;;
3865;SDS011;1948;53.250;10.412;2023-12-20T05:36:43;21.00;;;3.10;;
3865;SDS011;1948;53.250;10.412;2023-12-20T05:39:10;10.23;;;2.93;;
3865;SDS011;1948;53.250;10.412;2023-12-20T05:41:38;35.83;;;6.50;;
3865;SDS011;1948;53.250;10.412;2023-12-20T05:44:07;18.13;;;3.77;;
3865;SDS011;1948;53.250;10.412;2023-12-20T05:46:39;16.03;;;3.53;;
3865;SDS011;1948;53.250;10.412;2023-12-20T05:49:10;10.27;;;3.10;;
3865;SDS011;1948;53.250;10.412;2023-12-20T05:51:37;19.23;;;3.83;;
3865;SDS011;1948;53.250;10.412;2023-12-20T05:54:04;13.47;;;3.23;;
3865;SDS011;1948;53.250;10.412;2023-12-20T05:56:35;7.97;;;3.27;;
3865;SDS011;1948;53.250;10.412;2023-12-20T05:59:05;16.77;;;3.80;;
3865;SDS011;1948;53.250;10.412;2023-12-20T06:01:34;15.37;;;3.33;;
3865;SDS011;1948;53.250;10.412;2023-12-20T06:04:03;15.63;;;3.80;;
3865;SDS011;1948;53.250;10.412;2023-12-20T06:06:31;18.50;;;3.67;;
3865;SDS011;1948;53.250;10.412;2023-12-20T06:09:02;9.33;;;3.47;;
3865;SDS011;1948;53.250;10.412;2023-12-20T06:11:29;17.77;;;3.50;;
3865;SDS011;1948;53.250;10.412;2023-12-20T06:13:59;11.50;;;3.63;;
3865;SDS011;1948;53.250;10.412;2023-12-20T06:16:29;18.07;;;4.20;;
3865;SDS011;1948;53.250;10.412;2023-12-20T06:18:58;14.40;;;3.13;;
3865;SDS011;1948;53.250;10.412;2023-12-20T06:21:25;9.77;;;4.00;;
3865;SDS011;1948;53.250;10.412;2023-12-20T06:23:52;12.30;;;4.60;;
3865;SDS011;1948;53.250;10.412;2023-12-20T06:26:19;19.37;;;5.50;;
3865;SDS011;1948;53.250;10.412;2023-12-20T06:28:46;12.60;;;3.83;;
3865;SDS011;1948;53.250;10.412;2023-12-20T06:31:14;17.93;;;5.00;;
3865;SDS011;1948;53.250;10.412;2023-12-20T06:33:42;12.20;;;3.70;;
3865;SDS011;1948;53.250;10.412;2023-12-20T06:36:12;19.13;;;4.03;;
3865;SDS011;1948;53.250;10.412;2023-12-20T06:38:40;21.07;;;4.53;;
3865;SDS011;1948;53.250;10.412;2023-12-20T06:41:12;13.17;;;4.10;;
3865;SDS011;1948;53.250;10.412;2023-12-20T06:43:42;27.70;;;4.50;;
3865;SDS011;1948;53.250;10.412;2023-12-20T06:46:18;10.83;;;4.17;;
3865;SDS011;1948;53.250;10.412;2023-12-20T06:48:45;24.30;;;5.37;;
3865;SDS011;1948;53.250;10.412;2023-12-20T06:51:14;11.83;;;3.83;;
3865;SDS011;1948;53.250;10.412;2023-12-20T06:53:47;21.93;;;3.90;;
3865;SDS011;1948;53.250;10.412;2023-12-20T06:56:14;17.80;;;3.97;;
3865;SDS011;1948;53.250;10.412;2023-12-20T06:58:45;22.63;;;5.10;;
3865;SDS011;1948;53.250;10.412;2023-12-20T07:01:15;13.50;;;3.70;;
3865;SDS011;1948;53.250;10.412;2023-12-20T07:03:45;15.67;;;3.43;;
3865;SDS011;1948;53.250;10.412;2023-12-20T07:06:12;17.40;;;3.00;;
3865;SDS011;1948;53.250;10.412;2023-12-20T07:08:43;8.70;;;3.33;;
3865;SDS011;1948;53.250;10.412;2023-12-20T07:11:10;10.87;;;3.80;;
3865;SDS011;1948;53.250;10.412;2023-12-20T07:13:37;9.70;;;3.77;;
3865;SDS011;1948;53.250;10.412;2023-12-20T07:16:05;24.40;;;4.37;;
3865;SDS011;1948;53.250;10.412;2023-12-20T07:18:32;13.20;;;3.70;;
3865;SDS011;1948;53.250;10.412;2023-12-20T07:20:59;14.63;;;3.27;;
3865;SDS011;1948;53.250;10.412;2023-12-20T07:23:29;18.60;;;4.73;;
3865;SDS011;1948;53.250;10.412;2023-12-20T07:25:59;13.17;;;3.47;;
3865;SDS011;1948;53.250;10.412;2023-12-20T07:28:27;18.33;;;4.27;;
3865;SDS011;1948;53.250;10.412;2023-12-20T07:30:55;14.90;;;4.40;;
3865;SDS011;1948;53.250;10.412;2023-12-20T07:33:24;6.30;;;3.30;;
3865;SDS011;1948;53.250;10.412;2023-12-20T07:35:54;14.03;;;3.63;;
3865;SDS011;1948;53.250;10.412;2023-12-20T07:38:21;13.43;;;4.00;;
3865;SDS011;1948;53.250;10.412;2023-12-20T07:40:48;27.00;;;4.57;;
3865;SDS011;1948;53.250;10.412;2023-12-20T07:43:18;14.33;;;3.80;;
3865;SDS011;1948;53.250;10.412;2023-12-20T07:45:48;17.83;;;3.37;;
3865;SDS011;1948;53.250;10.412;2023-12-20T07:48:18;11.37;;;3.70;;
3865;SDS011;1948;53.250;10.412;2023-12-20T07:50:45;21.17;;;3.97;;
3865;SDS011;1948;53.250;10.412;2023-12-20T07:53:12;26.27;;;4.40;;
3865;SDS011;1948;53.250;10.412;2023-12-20T07:55:39;14.73;;;3.43;;
3865;SDS011;1948;53.250;10.412;2023-12-20T07:58:06;21.97;;;4.23;;
3865;SDS011;1948;53.250;10.412;2023-12-20T08:00:33;12.80;;;2.83;;
3865;SDS011;1948;53.250;10.412;2023-12-20T08:03:00;23.63;;;3.80;;
3865;SDS011;1948;53.250;10.412;2023-12-20T08:05:32;21.83;;;3.37;;
3865;SDS011;1948;53.250;10.412;2023-12-20T08:07:59;15.23;;;3.87;;
3865;SDS011;1948;53.250;10.412;2023-12-20T08:10:28;15.93;;;3.53;;
3865;SDS011;1948;53.250;10.412;2023-12-20T08:12:56;28.40;;;4.90;;
3865;SDS011;1948;53.250;10.412;2023-12-20T08:15:23;27.07;;;3.93;;
3865;SDS011;1948;53.250;10.412;2023-12-20T08:17:50;16.20;;;3.23;;
3865;SDS011;1948;53.250;10.412;2023-12-20T08:20:17;18.57;;;4.77;;
3865;SDS011;1948;53.250;10.412;2023-12-20T08:22:52;32.40;;;4.43;;
3865;SDS011;1948;53.250;10.412;2023-12-20T08:25:19;21.90;;;4.60;;
3865;SDS011;1948;53.250;10.412;2023-12-20T08:27:46;25.90;;;4.30;;
3865;SDS011;1948;53.250;10.412;2023-12-20T08:30:16;24.77;;;4.23;;
3865;SDS011;1948;53.250;10.412;2023-12-20T08:32:49;21.70;;;4.20;;
3865;SDS011;1948;53.250;10.412;2023-12-20T08:35:16;20.10;;;4.20;;
3865;SDS011;1948;53.250;10.412;2023-12-20T08:37:46;17.90;;;3.80;;
3865;SDS011;1948;53.250;10.412;2023-12-20T08:40:13;29.73;;;4.37;;
3865;SDS011;1948;53.250;10.412;2023-12-20T08:42:43;28.43;;;4.80;;
3865;SDS011;1948;53.250;10.412;2023-12-20T08:45:10;40.67;;;4.47;;
3865;SDS011;1948;53.250;10.412;2023-12-20T08:47:37;22.83;;;4.20;;
3865;SDS011;1948;53.250;10.412;2023-12-20T08:50:04;23.07;;;4.20;;
3865;SDS011;1948;53.250;10.412;2023-12-20T08:52:32;15.00;;;4.20;;
3865;SDS011;1948;53.250;10.412;2023-12-20T08:55:02;23.27;;;4.07;;
3865;SDS011;1948;53.250;10.412;2023-12-20T08:57:29;17.10;;;3.67;;
3865;SDS011;1948;53.250;10.412;2023-12-20T08:59:58;9.80;;;3.50;;
3865;SDS011;1948;53.250;10.412;2023-12-20T09:02:27;15.97;;;4.20;;
3865;SDS011;1948;53.250;10.412;2023-12-20T09:04:55;18.47;;;3.90;;
3865;SDS011;1948;53.250;10.412;2023-12-20T09:09:51;12.20;;;3.27;;
3865;SDS011;1948;53.250;10.412;2023-12-20T09:12:24;18.50;;;3.33;;
3865;SDS011;1948;53.250;10.412;2023-12-20T09:14:51;17.53;;;5.17;;
3865;SDS011;1948;53.250;10.412;2023-12-20T09:17:18;15.07;;;3.63;;
3865;SDS011;1948;53.250;10.412;2023-12-20T09:19:49;8.80;;;3.40;;
3865;SDS011;1948;53.250;10.412;2023-12-20T09:22:18;22.83;;;4.30;;
3865;SDS011;1948;53.250;10.412;2023-12-20T09:24:46;16.47;;;3.47;;
3865;SDS011;1948;53.250;10.412;2023-12-20T09:27:17;17.47;;;3.80;;
3865;SDS011;1948;53.250;10.412;2023-12-20T09:29:44;14.00;;;3.63;;
3865;SDS011;1948;53.250;10.412;2023-12-20T09:32:11;15.40;;;3.73;;
3865;SDS011;1948;53.250;10.412;2023-12-20T09:34:43;17.67;;;3.30;;
3865;SDS011;1948;53.250;10.412;2023-12-20T09:37:11;20.57;;;4.70;;
3865;SDS011;1948;53.250;10.412;2023-12-20T09:39:40;22.23;;;5.20;;
3865;SDS011;1948;53.250;10.412;2023-12-20T09:42:07;9.43;;;3.40;;
3865;SDS011;1948;53.250;10.412;2023-12-20T09:44:38;16.90;;;4.43;;
3865;SDS011;1948;53.250;10.412;2023-12-20T09:47:13;18.03;;;3.90;;
3865;SDS011;1948;53.250;10.412;2023-12-20T09:49:42;18.00;;;4.60;;
3865;SDS011;1948;53.250;10.412;2023-12-20T09:52:10;17.53;;;4.63;;
3865;SDS011;1948;53.250;10.412;2023-12-20T09:54:40;17.87;;;4.47;;
3865;SDS011;1948;53.250;10.412;2023-12-20T09:57:12;20.30;;;3.60;;
3865;SDS011;1948;53.250;10.412;2023-12-20T09:59:39;16.93;;;4.00;;
3865;SDS011;1948;53.250;10.412;2023-12-20T10:02:09;12.93;;;3.70;;
3865;SDS011;1948;53.250;10.412;2023-12-20T10:04:46;16.27;;;4.17;;
3865;SDS011;1948;53.250;10.412;2023-12-20T10:07:18;15.20;;;2.93;;
3865;SDS011;1948;53.250;10.412;2023-12-20T10:09:47;6.43;;;2.47;;
3865;SDS011;1948;53.250;10.412;2023-12-20T10:12:22;4.67;;;2.20;;
3865;SDS011;1948;53.250;10.412;2023-12-20T10:14:50;4.33;;;2.10;;
3865;SDS011;1948;53.250;10.412;2023-12-20T10:17:17;5.13;;;1.77;;
3865;SDS011;1948;53.250;10.412;2023-12-20T10:19:46;3.60;;;1.63;;
3865;SDS011;1948;53.250;10.412;2023-12-20T10:22:13;3.80;;;1.50;;
3865;SDS011;1948;53.250;10.412;2023-12-20T10:24:41;3.63;;;1.60;;
3865;SDS011;1948;53.250;10.412;2023-12-20T10:27:09;2.73;;;1.80;;
3865;SDS011;1948;53.250;10.412;2023-12-20T10:29:37;1.13;;;1.03;;
3865;SDS011;1948;53.250;10.412;2023-12-20T10:32:21;1.60;;;1.50;;
3865;SDS011;1948;53.250;10.412;2023-12-20T10:34:52;1.00;;;1.00;;
3865;SDS011;1948;53.250;10.412;2023-12-20T10:37:21;2.07;;;0.93;;
3865;SDS011;1948;53.250;10.412;2023-12-20T10:39:53;4.20;;;1.20;;
3865;SDS011;1948;53.250;10.412;2023-12-20T10:42:26;2.50;;;2.00;;
3865;SDS011;1948;53.250;10.412;2023-12-20T10:44:55;4.90;;;1.37;;
3865;SDS011;1948;53.250;10.412;2023-12-20T10:47:28;1.47;;;0.97;;
3865;SDS011;1948;53.250;10.412;2023-12-20T10:49:57;2.37;;;0.97;;
3865;SDS011;1948;53.250;10.412;2023-12-20T10:52:31;0.80;;;0.80;;
3865;SDS011;1948;53.250;10.412;2023-12-20T10:55:06;1.03;;;1.03;;
3865;SDS011;1948;53.250;10.412;2023-12-20T10:57:34;2.10;;;2.00;;
3865;SDS011;1948;53.250;10.412;2023-12-20T11:00:03;1.33;;;1.23;;
3865;SDS011;1948;53.250;10.412;2023-12-20T11:02:34;1.57;;;0.70;;
3865;SDS011;1948;53.250;10.412;2023-12-20T11:08:36;2.13;;;1.30;;
3865;SDS011;1948;53.250;10.412;2023-12-20T11:14:15;2.00;;;0.90;;
3865;SDS011;1948;53.250;10.412;2023-12-20T11:16:50;1.90;;;1.47;;
3865;SDS011;1948;53.250;10.412;2023-12-20T11:19:43;2.30;;;1.10;;
3865;SDS011;1948;53.250;10.412;2023-12-20T11:22:26;7.70;;;1.43;;
3865;SDS011;1948;53.250;10.412;2023-12-20T11:25:08;1.63;;;1.03;;
3865;SDS011;1948;53.250;10.412;2023-12-20T11:27:40;1.10;;;1.10;;
3865;SDS011;1948;53.250;10.412;2023-12-20T11:30:14;3.33;;;1.43;;
3865;SDS011;1948;53.250;10.412;2023-12-20T11:32:43;2.57;;;1.20;;
3865;SDS011;1948;53.250;10.412;2023-12-20T11:37:42;10.03;;;1.50;;
3865;SDS011;1948;53.250;10.412;2023-12-20T11:40:11;4.70;;;2.00;;
3865;SDS011;1948;53.250;10.412;2023-12-20T11:42:44;7.33;;;1.20;;
3865;SDS011;1948;53.250;10.412;2023-12-20T11:45:16;12.13;;;2.00;;
3865;SDS011;1948;53.250;10.412;2023-12-20T11:47:56;3.90;;;1.40;;
3865;SDS011;1948;53.250;10.412;2023-12-20T11:50:25;5.70;;;1.70;;
3865;SDS011;1948;53.250;10.412;2023-12-20T11:52:57;6.83;;;2.10;;
3865;SDS011;1948;53.250;10.412;2023-12-20T11:55:27;10.30;;;2.40;;
3865;SDS011;1948;53.250;10.412;2023-12-20T11:57:54;2.40;;;1.50;;
3865;SDS011;1948;53.250;10.412;2023-12-20T12:00:21;6.83;;;1.93;;
3865;SDS011;1948;53.250;10.412;2023-12-20T12:03:00;1.13;;;0.97;;
3865;SDS011;1948;53.250;10.412;2023-12-20T12:05:30;4.43;;;1.30;;
3865;SDS011;1948;53.250;10.412;2023-12-20T12:08:02;6.63;;;1.40;;
3865;SDS011;1948;53.250;10.412;2023-12-20T12:10:35;7.80;;;2.03;;
3865;SDS011;1948;53.250;10.412;2023-12-20T12:13:06;7.33;;;2.07;;
3865;SDS011;1948;53.250;10.412;2023-12-20T12:15:33;8.03;;;2.00;;
3865;SDS011;1948;53.250;10.412;2023-12-20T12:18:01;1.60;;;1.43;;
3865;SDS011;1948;53.250;10.412;2023-12-20T12:20:28;8.70;;;2.13;;
3865;SDS011;1948;53.250;10.412;2023-12-20T12:23:05;6.67;;;2.90;;
3865;SDS011;1948;53.250;10.412;2023-12-20T12:25:34;8.13;;;1.70;;
3865;SDS011;1948;53.250;10.412;2023-12-20T12:28:09;6.43;;;2.20;;
3865;SDS011;1948;53.250;10.412;2023-12-20T12:30:40;9.40;;;1.90;;
3865;SDS011;1948;53.250;10.412;2023-12-20T12:33:19;9.07;;;2.40;;
3865;SDS011;1948;53.250;10.412;2023-12-20T12:35:50;10.60;;;2.43;;
3865;SDS011;1948;53.250;10.412;2023-12-20T12:38:21;6.43;;;1.97;;
3865;SDS011;1948;53.250;10.412;2023-12-20T12:40:49;10.27;;;1.60;;
3865;SDS011;1948;53.250;10.412;2023-12-20T12:43:17;5.33;;;1.97;;
3865;SDS011;1948;53.250;10.412;2023-12-20T12:45:44;5.33;;;1.97;;
3865;SDS011;1948;53.250;10.412;2023-12-20T12:48:11;6.50;;;1.53;;
3865;SDS011;1948;53.250;10.412;2023-12-20T12:50:41;15.10;;;2.80;;
3865;SDS011;1948;53.250;10.412;2023-12-20T12:53:10;10.43;;;1.60;;
3865;SDS011;1948;53.250;10.412;2023-12-20T12:55:40;15.07;;;3.07;;
3865;SDS011;1948;53.250;10.412;2023-12-20T12:58:07;4.60;;;1.47;;
3865;SDS011;1948;53.250;10.412;2023-12-20T13:00:38;6.23;;;1.47;;
3865;SDS011;1948;53.250;10.412;2023-12-20T13:03:08;9.70;;;2.17;;
3865;SDS011;1948;53.250;10.412;2023-12-20T13:05:41;11.80;;;2.00;;
3865;SDS011;1948;53.250;10.412;2023-12-20T13:08:14;30.00;;;2.00;;
3865;SDS011;1948;53.250;10.412;2023-12-20T13:10:49;10.90;;;1.70;;
3865;SDS011;1948;53.250;10.412;2023-12-20T13:13:16;5.03;;;1.53;;
3865;SDS011;1948;53.250;10.412;2023-12-20T13:15:43;5.63;;;1.30;;
3865;SDS011;1948;53.250;10.412;2023-12-20T13:18:18;5.60;;;1.67;;
3865;SDS011;1948;53.250;10.412;2023-12-20T13:20:45;3.80;;;1.50;;
3865;SDS011;1948;53.250;10.412;2023-12-20T13:23:13;4.40;;;1.37;;
3865;SDS011;1948;53.250;10.412;2023-12-20T13:25:40;12.13;;;2.07;;
3865;SDS011;1948;53.250;10.412;2023-12-20T13:28:08;4.87;;;1.50;;
3865;SDS011;1948;53.250;10.412;2023-12-20T13:30:36;6.73;;;1.50;;
3865;SDS011;1948;53.250;10.412;2023-12-20T13:33:08;7.23;;;2.20;;
3865;SDS011;1948;53.250;10.412;2023-12-20T13:35:35;6.30;;;1.60;;
3865;SDS011;1948;53.250;10.412;2023-12-20T13:38:05;10.50;;;1.60;;
3865;SDS011;1948;53.250;10.412;2023-12-20T13:40:32;3.90;;;1.93;;
3865;SDS011;1948;53.250;10.412;2023-12-20T13:43:01;13.63;;;2.10;;
3865;SDS011;1948;53.250;10.412;2023-12-20T13:45:29;8.50;;;2.20;;
3865;SDS011;1948;53.250;10.412;2023-12-20T13:47:59;8.60;;;2.67;;
3865;SDS011;1948;53.250;10.412;2023-12-20T13:50:26;9.53;;;2.00;;
3865;SDS011;1948;53.250;10.412;2023-12-20T13:52:58;9.73;;;2.43;;
3865;SDS011;1948;53.250;10.412;2023-12-20T13:55:25;12.27;;;2.83;;
3865;SDS011;1948;53.250;10.412;2023-12-20T13:57:53;16.57;;;2.67;;
3865;SDS011;1948;53.250;10.412;2023-12-20T14:00:24;12.00;;;3.30;;
3865;SDS011;1948;53.250;10.412;2023-12-20T14:02:51;17.30;;;3.03;;
3865;SDS011;1948;53.250;10.412;2023-12-20T14:05:18;10.97;;;2.40;;
3865;SDS011;1948;53.250;10.412;2023-12-20T14:07:48;13.80;;;3.47;;
3865;SDS011;1948;53.250;10.412;2023-12-20T14:10:16;8.00;;;2.30;;
3865;SDS011;1948;53.250;10.412;2023-12-20T14:12:43;15.13;;;3.20;;
3865;SDS011;1948;53.250;10.412;2023-12-20T14:15:12;16.23;;;3.23;;
3865;SDS011;1948;53.250;10.412;2023-12-20T14:17:40;21.83;;;3.97;;
3865;SDS011;1948;53.250;10.412;2023-12-20T14:20:13;17.43;;;3.83;;
3865;SDS011;1948;53.250;10.412;2023-12-20T14:22:40;9.50;;;3.47;;
3865;SDS011;1948;53.250;10.412;2023-12-20T14:25:11;16.90;;;3.10;;
3865;SDS011;1948;53.250;10.412;2023-12-20T14:27:40;15.57;;;3.23;;
3865;SDS011;1948;53.250;10.412;2023-12-20T14:30:12;12.67;;;3.60;;
3865;SDS011;1948;53.250;10.412;2023-12-20T14:32:41;12.50;;;3.20;;
3865;SDS011;1948;53.250;10.412;2023-12-20T14:35:11;9.73;;;2.87;;
3865;SDS011;1948;53.250;10.412;2023-12-20T14:37:41;11.13;;;3.40;;
3865;SDS011;1948;53.250;10.412;2023-12-20T14:40:09;20.80;;;3.67;;
3865;SDS011;1948;53.250;10.412;2023-12-20T14:42:42;18.03;;;3.43;;
3865;SDS011;1948;53.250;10.412;2023-12-20T14:45:14;22.40;;;4.20;;
3865;SDS011;1948;53.250;10.412;2023-12-20T14:47:42;17.50;;;3.17;;
3865;SDS011;1948;53.250;10.412;2023-12-20T14:50:10;10.47;;;3.53;;
3865;SDS011;1948;53.250;10.412;2023-12-20T14:52:44;19.27;;;3.70;;
3865;SDS011;1948;53.250;10.412;2023-12-20T14:55:11;21.40;;;3.60;;
3865;SDS011;1948;53.250;10.412;2023-12-20T14:57:42;23.47;;;3.37;;
3865;SDS011;1948;53.250;10.412;2023-12-20T15:00:09;11.30;;;3.40;;
3865;SDS011;1948;53.250;10.412;2023-12-20T15:02:42;15.20;;;3.83;;
3865;SDS011;1948;53.250;10.412;2023-12-20T15:05:10;20.73;;;3.00;;
3865;SDS011;1948;53.250;10.412;2023-12-20T15:07:37;21.00;;;3.90;;
3865;SDS011;1948;53.250;10.412;2023-12-20T15:10:04;19.13;;;4.20;;
3865;SDS011;1948;53.250;10.412;2023-12-20T15:12:31;26.60;;;4.07;;
3865;SDS011;1948;53.250;10.412;2023-12-20T15:15:00;15.60;;;3.53;;
3865;SDS011;1948;53.250;10.412;2023-12-20T15:17:30;22.63;;;3.80;;